Flight Track Log - Related Links

Times and Time Zones

All times are in EDT time to prevent confusion due to time zone crossing. See the N6319G flight status page for this flight to view local times or setup timezone preferences in your user account.

Time Position Orientation Groundspeed Altitude Reporting Facility
EDT Latitude Longitude Course Direction KTS MPH feet Rate Location/Type
Wed 06:07:10 PM 43.0136 -89.6019 231° Southwest 109 125 4,500  Level Chicago Center
Wed 06:08:12 PM 42.9856 -89.6269 213° Southwest 104 120 4,500 -97 Level Chicago Center
Wed 06:09:14 PM 42.9581 -89.6483 210° Southwest 110 127 4,300 -48 Descending Chicago Center
Wed 06:10:16 PM 42.9403 -89.6733 226° Southwest 100 115 4,400 48 Climbing Chicago Center
Wed 06:11:00 PM 42.9784 -89.7599 231° Southwest  Level Estimated
Wed 06:11:18 PM 42.9194 -89.6939 216° Southwest 92 106 4,400  Level Chicago Center
Wed 06:12:00 PM 42.9557 -89.7979 231° Southwest  Level Estimated
Wed 06:12:20 PM 42.8944 -89.7133 210° Southwest 99 114 4,500  Level Chicago Center
Wed 06:13:22 PM 42.8678 -89.7372 213° Southwest 99 114 4,500 -48 Level Chicago Center
Wed 06:14:24 PM 42.8447 -89.7572 212° Southwest 98 113 4,400 -49 Descending Chicago Center
Wed 06:15:25 PM 42.8333 -89.7908 245° Southwest 97 112 4,400 49 Level Chicago Center
Wed 06:16:27 PM 42.8269 -89.8261 256° West 96 110 4,500 48 Climbing Chicago Center
Wed 06:17:29 PM 42.8222 -89.8614 260° West 95 109 4,500  Level Chicago Center
Wed 06:18:31 PM 42.8144 -89.8958 253° West 95 109 4,500 -48 Level Chicago Center
Wed 06:19:33 PM 42.8069 -89.9358 256° West 95 109 4,400 -48 Descending Chicago Center
Wed 06:20:35 PM 42.7983 -89.9717 252° West 98 113 4,400 48 Level Chicago Center
Wed 06:21:37 PM 42.7953 -90.0053 263° West 92 106 4,500  Climbing Chicago Center
Wed 06:22:39 PM 42.7842 -90.0381 245° Southwest 95 109 4,400 -48 Descending Chicago Center
Wed 06:23:41 PM 42.7694 -90.0689 237° Southwest 98 113 4,400  Level Chicago Center
Wed 06:24:43 PM 42.7667 -90.1131 265° West 97 112 4,400  Level Chicago Center
Wed 06:25:45 PM 42.7722 -90.1456 283° West 91 105 4,400 48 Level Chicago Center
Wed 06:26:47 PM 42.7717 -90.1764 269° West 85 98 4,500 48 Climbing Chicago Center
Wed 06:27:49 PM 42.7614 -90.2094 247° West 92 106 4,500  Level Chicago Center
Wed 06:28:51 PM 42.7489 -90.2417 242° Southwest 96 110 4,500  Level Chicago Center
Wed 06:29:53 PM 42.7303 -90.2792 236° Southwest 99 114 4,500 -48 Level Chicago Center
Wed 06:30:55 PM 42.7169 -90.3114 241° Southwest 100 115 4,400  Descending Chicago Center
Wed 06:31:57 PM 42.7000 -90.3411 232° Southwest 100 115 4,500 48 Climbing Chicago Center
Wed 06:32:59 PM 42.6858 -90.3725 238° Southwest 100 115 4,500 -194 Level Chicago Center
Wed 06:34:01 PM 42.6697 -90.4050 236° Southwest 103 119 4,100 -484 Descending Chicago Center
Wed 06:35:03 PM 42.6456 -90.4431 229° Southwest 108 124 3,500 -581 Descending Chicago Center
Wed 06:36:05 PM 42.6303 -90.4792 240° Southwest 111 128 2,900 -290 Descending Chicago Center
Wed 06:37:07 PM 42.6131 -90.5058 229° Southwest 104 120 2,900 97 Level Chicago Center
Wed 06:38:09 PM 42.5950 -90.5267 220° Southwest 95 109 3,100 97 Climbing Chicago Center
Wed 06:39:11 PM 42.5775 -90.5533 228° Southwest 94 108 3,100  Level Chicago Center

Login

Don't have an account? Register now (free) for customized features, flight alerts, and more!